createdAt,value
2017-05-28T04:46:24.913Z,61.61
2017-05-28T04:46:50.407Z,61.9
2017-05-28T04:47:15.877Z,61.99
2017-05-28T04:47:41.341Z,61.41
2017-05-28T04:48:06.894Z,61.99
2017-05-28T04:48:32.341Z,61.22
2017-05-28T04:48:57.833Z,61.99
2017-05-28T04:49:23.329Z,61.8
2017-05-28T04:49:48.864Z,61.71
2017-05-28T04:50:14.329Z,61.61
2017-05-28T04:50:39.831Z,61.32
2017-05-28T04:51:05.311Z,61.99
2017-05-28T04:51:30.798Z,62.18
2017-05-28T04:51:56.237Z,61.61
2017-05-28T04:52:21.719Z,61.71
2017-05-28T04:52:47.209Z,61.8
2017-05-28T04:53:12.659Z,61.71
2017-05-28T04:53:38.173Z,61.9
2017-05-28T04:54:03.646Z,62.09
2017-05-28T04:54:29.117Z,61.51
2017-05-28T04:54:54.582Z,61.99
2017-05-28T04:55:20.035Z,62.28
2017-05-28T04:55:45.545Z,62.09
2017-05-28T04:56:11.032Z,62.18
2017-05-28T04:56:36.480Z,62.09
2017-05-28T04:57:01.960Z,62.18
2017-05-28T04:57:27.456Z,62.18
2017-05-28T04:57:52.945Z,62.18
2017-05-28T04:58:18.398Z,62.18
2017-05-28T04:58:43.868Z,62.48
2017-05-28T04:59:09.359Z,61.99
2017-05-28T04:59:34.850Z,62.09
2017-05-28T05:00:00.312Z,62.66
2017-05-28T05:00:25.817Z,62.86
2017-05-28T05:00:51.330Z,62.48
2017-05-28T05:01:16.782Z,62.86
2017-05-28T05:02:14.772Z,62.96
2017-05-28T05:02:40.276Z,62.57
2017-05-28T05:03:05.758Z,62.57
2017-05-28T05:03:31.249Z,62.66
2017-05-28T05:03:56.726Z,62.57
2017-05-28T05:04:22.220Z,62.86
2017-05-28T05:04:47.665Z,62.48
2017-05-28T05:05:13.145Z,62.28
2017-05-28T05:05:38.640Z,62.66
2017-05-28T05:06:04.130Z,62.57
2017-05-28T05:06:29.646Z,62.66
2017-05-28T05:06:55.144Z,62.57
2017-05-28T05:07:20.596Z,62.48
2017-05-28T05:07:46.072Z,62.57
2017-05-28T05:08:11.527Z,62.86
2017-05-28T05:08:37.051Z,62.57
2017-05-28T05:09:02.531Z,62.66
2017-05-28T05:09:27.993Z,62.86
2017-05-28T05:09:53.478Z,63.15
2017-05-28T05:10:18.939Z,63.24
2017-05-28T05:10:44.428Z,62.96
2017-05-28T05:11:09.902Z,63.06
2017-05-28T05:11:35.402Z,62.96
2017-05-28T05:12:00.899Z,63.15
2017-05-28T05:12:26.386Z,63.24
2017-05-28T05:12:51.881Z,63.54
2017-05-28T05:13:17.383Z,63.24
2017-05-28T05:13:42.842Z,63.15
2017-05-28T05:14:08.309Z,63.54
2017-05-28T05:14:33.810Z,63.15
2017-05-28T05:14:59.253Z,63.06
2017-05-28T05:15:24.735Z,63.24
2017-05-28T05:15:50.226Z,63.44
2017-05-28T05:16:15.695Z,63.15
2017-05-28T05:16:41.197Z,63.06
2017-05-28T05:17:06.687Z,63.06
2017-05-28T05:17:32.146Z,63.54
2017-05-28T05:17:57.639Z,63.54
2017-05-28T05:18:23.119Z,63.34
2017-05-28T05:18:48.633Z,63.44
2017-05-28T05:19:14.110Z,63.34
2017-05-28T05:19:39.611Z,63.24
2017-05-28T05:20:05.131Z,63.24
2017-05-28T05:20:30.601Z,63.15
2017-05-28T05:20:56.108Z,63.12
2017-05-28T05:21:21.590Z,63.15
2017-05-28T05:21:47.068Z,63.54
2017-05-28T05:22:12.541Z,63.06
2017-05-28T05:22:38.036Z,63.44
2017-05-28T05:23:03.562Z,63.15
2017-05-28T05:23:29.036Z,63.24
2017-05-28T05:23:54.515Z,63.15
2017-05-28T05:24:20.012Z,62.96
2017-05-28T05:24:45.473Z,63.15
2017-05-28T05:25:11.003Z,63.34
2017-05-28T05:25:36.474Z,63.06
2017-05-28T05:26:01.936Z,63.24
2017-05-28T05:26:27.396Z,63.06
2017-05-28T05:26:52.865Z,63.06
2017-05-28T05:27:18.342Z,63.24
2017-05-28T05:27:43.829Z,63.24
2017-05-28T05:28:09.333Z,62.76
2017-05-28T05:28:34.783Z,62.48
2017-05-28T05:29:00.265Z,62.48
2017-05-28T05:29:25.777Z,62.38
2017-05-28T05:29:51.267Z,62.57
2017-05-28T05:30:16.745Z,62.57
2017-05-28T05:30:42.218Z,62.57
2017-05-28T05:31:07.708Z,62.66
2017-05-28T05:31:33.189Z,62.76
2017-05-28T05:31:58.668Z,62.66
2017-05-28T05:32:24.128Z,62.66
2017-05-28T05:32:49.643Z,62.57
2017-05-28T05:33:15.098Z,62.76
2017-05-28T05:33:40.580Z,62.38
2017-05-28T05:34:06.031Z,62.48
2017-05-28T05:35:14.738Z,62.48
2017-05-28T05:35:40.208Z,62.48
2017-05-28T05:36:05.680Z,62.28
2017-05-28T05:36:31.164Z,62.48
2017-05-28T05:36:56.627Z,62.48
2017-05-28T05:37:22.115Z,62.28
2017-05-28T05:37:47.611Z,62.66
2017-05-28T05:38:13.087Z,62.38
2017-05-28T05:38:38.564Z,62.28
2017-05-28T05:39:04.019Z,62.48
2017-05-28T05:39:29.490Z,62.28
2017-05-28T05:39:54.934Z,62.38
2017-05-28T05:40:20.460Z,62.48
2017-05-28T05:40:45.916Z,62.57
2017-05-28T05:41:11.389Z,62.48
2017-05-28T05:41:36.884Z,62.66
2017-05-28T05:42:02.386Z,63.24
2017-05-28T05:42:27.868Z,63.44
2017-05-28T05:42:53.340Z,63.06
2017-05-28T05:43:18.850Z,63.06
2017-05-28T05:43:44.346Z,63.15
2017-05-28T05:44:09.819Z,63.06
2017-05-28T05:44:35.351Z,63.06
2017-05-28T05:45:00.812Z,63.15
2017-05-28T05:45:26.276Z,63.34
2017-05-28T05:45:51.770Z,63.34
2017-05-28T05:46:17.222Z,63.06
2017-05-28T05:46:44.225Z,63.15
2017-05-28T05:47:09.747Z,63.63
2017-05-28T05:47:35.254Z,64.21
2017-05-28T05:48:00.732Z,64.02
2017-05-28T05:48:26.208Z,64.5
2017-05-28T05:48:51.687Z,64.98
2017-05-28T05:49:17.175Z,65.17
2017-05-28T05:49:42.629Z,65.37
2017-05-28T05:50:08.084Z,65.53
2017-05-28T05:50:33.569Z,65.24
2017-05-28T05:50:59.078Z,65.47
2017-05-28T05:51:24.551Z,65.95
2017-05-28T05:51:50.032Z,65.91
2017-05-28T05:52:15.537Z,66.01
2017-05-28T05:52:41.056Z,66.3
2017-05-28T05:53:06.561Z,66.2
2017-05-28T05:53:32.059Z,66.3
2017-05-28T05:53:57.522Z,65.81
2017-05-28T05:54:23.001Z,65.81
2017-05-28T05:54:48.456Z,66.3
2017-05-28T05:55:13.923Z,66.2
2017-05-28T05:55:39.402Z,66.97
2017-05-28T05:56:04.900Z,67.36
2017-05-28T05:56:30.391Z,67.94
2017-05-28T05:56:55.867Z,68.32
2017-05-28T05:57:21.363Z,68.23
2017-05-28T05:57:46.849Z,68.23
2017-05-28T05:58:12.395Z,68.52
2017-05-28T05:58:37.814Z,68.71
2017-05-28T05:59:03.292Z,68.8
2017-05-28T05:59:28.769Z,68.42
2017-05-28T05:59:54.274Z,68.8
2017-05-28T06:00:19.737Z,69.09
2017-05-28T06:00:45.217Z,69.29
2017-05-28T06:01:10.678Z,69.77
2017-05-28T06:01:36.155Z,69.73
2017-05-28T06:02:01.605Z,69.35
2017-05-28T06:02:27.103Z,69.09
2017-05-28T06:02:52.556Z,70.12
2017-05-28T06:03:18.042Z,69.83
2017-05-28T06:03:43.520Z,69.93
2017-05-28T06:04:08.995Z,69.93
2017-05-28T06:04:34.484Z,70.31
2017-05-28T06:04:59.956Z,70.89
2017-05-28T06:05:25.442Z,70.7
2017-05-28T06:05:50.924Z,70.89
2017-05-28T06:06:16.386Z,71.08
2017-05-28T06:06:41.876Z,71.28
2017-05-28T06:07:07.351Z,70.98
2017-05-28T06:07:32.809Z,70.79
2017-05-28T06:07:58.299Z,70.79
2017-05-28T06:08:23.775Z,70.41
2017-05-28T06:08:49.259Z,70.41
2017-05-28T06:09:14.739Z,70.12
2017-05-28T06:09:40.229Z,70.31
2017-05-28T06:10:05.721Z,69.87
2017-05-28T06:10:31.178Z,70.21
2017-05-28T06:10:56.642Z,69.35
2017-05-28T06:11:22.116Z,69.96
2017-05-28T06:11:47.587Z,69.45
2017-05-28T06:12:13.072Z,70.06
2017-05-28T06:12:38.540Z,69.19
2017-05-28T06:13:04.023Z,69.67
2017-05-28T06:13:29.534Z,69.77
2017-05-28T06:13:55.019Z,69.19
2017-05-28T06:14:20.494Z,69.29
2017-05-28T06:14:45.983Z,68.9
2017-05-28T06:15:11.434Z,69.19
2017-05-28T06:15:36.928Z,68.9
2017-05-28T06:16:02.387Z,68.99
2017-05-28T06:16:27.870Z,68.8
2017-05-28T06:16:53.345Z,68.9
2017-05-28T06:17:18.806Z,68.9
2017-05-28T06:17:44.286Z,68.71
2017-05-28T06:18:09.753Z,68.71
2017-05-28T06:18:35.235Z,68.32
2017-05-28T06:19:00.695Z,68.45
2017-05-28T06:19:26.154Z,68.71
2017-05-28T06:19:51.665Z,68.55
2017-05-28T06:20:17.124Z,69.03
2017-05-28T06:20:42.593Z,68.55
2017-05-28T06:21:08.078Z,68.45
2017-05-28T06:21:33.543Z,68.07
2017-05-28T06:21:59.019Z,68.65
2017-05-28T06:22:24.535Z,69.13
2017-05-28T06:22:50.018Z,69.71
2017-05-28T06:23:15.468Z,70.67
2017-05-28T06:23:40.954Z,73.75
2017-05-28T06:24:06.418Z,76.65
2017-05-28T06:24:31.894Z,78.29
2017-05-28T06:24:57.362Z,80.27
2017-05-28T06:25:22.869Z,81.14
2017-05-28T06:25:48.361Z,81.72
2017-05-28T06:26:13.818Z,81.91
2017-05-28T06:26:39.290Z,82.68
2017-05-28T06:27:04.752Z,82.87
2017-05-28T06:27:30.210Z,83.89
2017-05-28T06:27:55.691Z,84.09
2017-05-28T06:28:21.172Z,83.8
2017-05-28T06:28:46.641Z,83.7
2017-05-28T06:29:12.128Z,83.22
2017-05-28T06:29:37.619Z,82.41
2017-05-28T06:30:03.121Z,82.21
2017-05-28T06:30:28.634Z,82.21
2017-05-28T06:30:54.140Z,82.7
2017-05-28T06:31:19.585Z,82.6
2017-05-28T06:31:45.067Z,81.16
2017-05-28T06:32:10.542Z,81.35
2017-05-28T06:32:36.025Z,81.21
2017-05-28T06:33:01.504Z,81.06
2017-05-28T06:33:26.964Z,81.12
2017-05-28T06:33:52.435Z,81.88
2017-05-28T06:34:17.928Z,81.79
2017-05-28T06:34:43.412Z,82.27
2017-05-28T06:35:08.899Z,82.85
2017-05-28T06:35:34.397Z,83.42
2017-05-28T06:35:59.896Z,83.42
2017-05-28T06:36:25.437Z,83.62
2017-05-28T06:36:50.922Z,83.72
2017-05-28T06:37:16.423Z,83.62
2017-05-28T06:37:41.913Z,83.81
2017-05-28T06:38:07.379Z,83.86
2017-05-28T06:38:32.869Z,83.52
2017-05-28T06:38:58.332Z,84.16
2017-05-28T06:39:23.797Z,84.54
2017-05-28T06:39:49.293Z,84.25
2017-05-28T06:40:14.756Z,84.92
2017-05-28T06:40:40.260Z,85.69
2017-05-28T06:41:05.763Z,86.27
2017-05-28T06:41:31.241Z,86.94
2017-05-28T06:41:56.729Z,87.42
2017-05-28T06:42:22.225Z,88.19
2017-05-28T06:42:47.726Z,88.77
2017-05-28T06:43:13.227Z,88.19
2017-05-28T06:43:38.743Z,89.15
2017-05-28T06:44:04.261Z,88.24
2017-05-28T06:44:29.724Z,88.24
2017-05-28T06:44:55.225Z,88.53
2017-05-28T06:45:20.689Z,87.29
2017-05-28T06:45:46.163Z,87.29
2017-05-28T06:46:11.656Z,87.29
2017-05-28T06:46:37.120Z,87.57
2017-05-28T06:47:02.615Z,88.15
2017-05-28T06:47:28.159Z,88.34
2017-05-28T06:47:53.573Z,88.82
2017-05-28T06:48:19.047Z,89.11
2017-05-28T06:48:44.539Z,89.59
2017-05-28T06:49:10.608Z,89.5
2017-05-28T06:49:36.370Z,90.07
2017-05-28T06:50:01.944Z,90.22
2017-05-28T06:50:27.473Z,90.75
2017-05-28T06:50:53.016Z,90.65
2017-05-28T06:51:18.519Z,91.56
2017-05-28T06:51:44.004Z,91.75
2017-05-28T06:52:09.494Z,91.08
2017-05-28T06:52:34.967Z,91.66
2017-05-28T06:53:00.442Z,92.05
2017-05-28T06:53:25.957Z,92.24
2017-05-28T06:53:51.424Z,93.29
2017-05-28T06:54:16.903Z,92.91
2017-05-28T06:54:42.412Z,92.91
2017-05-28T06:55:07.900Z,93.01
2017-05-28T06:55:33.396Z,93.39
2017-05-28T06:55:58.855Z,93.58
2017-05-28T06:56:24.341Z,93.63
2017-05-28T06:56:50.007Z,93.34
2017-05-28T06:57:15.479Z,93.68
2017-05-28T06:57:40.946Z,93.73
2017-05-28T06:58:06.430Z,93.91
2017-05-28T06:58:31.909Z,94.3
2017-05-28T06:58:57.466Z,94.3
2017-05-28T06:59:22.945Z,94.49
2017-05-28T06:59:48.465Z,94.11
2017-05-28T07:00:13.947Z,94.49
2017-05-28T07:00:39.401Z,94.49
2017-05-28T07:01:04.868Z,94.49
2017-05-28T07:01:30.341Z,94.3
2017-05-28T07:01:55.788Z,94.49
2017-05-28T07:02:21.270Z,94.4
2017-05-28T07:02:46.748Z,93.82
2017-05-28T07:03:12.229Z,93.34
2017-05-28T07:03:37.699Z,93.63
2017-05-28T07:04:03.186Z,93.73
2017-05-28T07:04:28.683Z,94.01
2017-05-28T07:04:54.134Z,94.01
2017-05-28T07:05:19.609Z,93.91
2017-05-28T07:05:45.119Z,94.4
2017-05-28T07:06:10.572Z,93.53
2017-05-28T07:06:36.112Z,93.15
2017-05-28T07:07:01.528Z,93.24
2017-05-28T07:07:27.018Z,93.53
2017-05-28T07:07:52.461Z,93.63
2017-05-28T07:08:17.956Z,93.34
2017-05-28T07:08:43.416Z,93.53
2017-05-28T07:09:08.898Z,93.24
2017-05-28T07:09:34.387Z,94.01
2017-05-28T07:09:59.882Z,93.82
2017-05-28T07:10:25.349Z,94.11
2017-05-28T07:10:50.842Z,94.01
2017-05-28T07:11:16.350Z,94.21
2017-05-28T07:11:41.793Z,94.45
2017-05-28T07:12:07.271Z,94.35
2017-05-28T07:12:32.768Z,94.15
2017-05-28T07:12:58.240Z,94.06
2017-05-28T07:13:23.733Z,93.68
2017-05-28T07:13:49.219Z,94.45
2017-05-28T07:14:14.724Z,94.54
2017-05-28T07:14:40.182Z,94.35
2017-05-28T07:15:05.602Z,94.25
2017-05-28T07:15:31.051Z,94.15
2017-05-28T07:15:56.548Z,94.1
2017-05-28T07:16:22.002Z,94.3
2017-05-28T07:16:47.467Z,94.49
2017-05-28T07:17:12.933Z,93.82
2017-05-28T07:17:38.393Z,94.1
2017-05-28T07:18:03.857Z,93.82
2017-05-28T07:18:29.333Z,93.43
2017-05-28T07:18:54.814Z,93.43
2017-05-28T07:19:20.319Z,93.33
2017-05-28T07:19:45.802Z,93.38
2017-05-28T07:20:11.288Z,92.9
2017-05-28T07:20:36.797Z,92.22
2017-05-28T07:21:02.307Z,92.71
2017-05-28T07:21:27.763Z,93.29
2017-05-28T07:21:53.218Z,92.9
2017-05-28T07:22:18.697Z,92.9
2017-05-28T07:22:44.151Z,92.52
2017-05-28T07:23:09.625Z,92.9
2017-05-28T07:23:35.083Z,92.61
2017-05-28T07:24:00.575Z,92.52
2017-05-28T07:24:26.042Z,92.61
2017-05-28T07:24:51.475Z,92.52
2017-05-28T07:25:16.925Z,92.03
2017-05-28T07:25:42.389Z,92.22
2017-05-28T07:26:07.873Z,92.22
2017-05-28T07:26:33.298Z,91.46
2017-05-28T07:26:58.776Z,92.03
2017-05-28T07:27:24.278Z,91.84
2017-05-28T07:27:49.758Z,91.17
2017-05-28T07:28:15.278Z,90.5
2017-05-28T07:28:40.704Z,91.17
2017-05-28T07:29:06.166Z,91.17
2017-05-28T07:29:31.728Z,91.31
2017-05-28T07:29:57.246Z,90.83
2017-05-28T07:30:22.701Z,90.73
2017-05-28T07:30:48.183Z,90.83
2017-05-28T07:31:13.713Z,90.54
2017-05-28T07:31:39.179Z,90.54
2017-05-28T07:32:04.683Z,90.44
2017-05-28T07:32:30.169Z,90.34
2017-05-28T07:32:55.667Z,90.06
2017-05-28T07:33:21.126Z,91.02
2017-05-28T07:33:46.604Z,90.34
2017-05-28T07:34:12.099Z,90.16
2017-05-28T07:34:37.534Z,90.44
2017-05-28T07:35:03.029Z,90.34
2017-05-28T07:35:28.514Z,89.67
2017-05-28T07:35:53.975Z,89.86
2017-05-28T07:36:19.441Z,89.29
2017-05-28T07:36:44.951Z,87.74
2017-05-28T07:37:10.424Z,87.65
2017-05-28T07:37:35.911Z,87.84
2017-05-28T07:38:01.376Z,88.42
2017-05-28T07:38:26.849Z,88.23
2017-05-28T07:38:52.339Z,88.27
2017-05-28T07:39:17.837Z,88.46
2017-05-28T07:39:43.278Z,88.46
2017-05-28T07:40:08.784Z,88.65
2017-05-28T07:40:34.244Z,89.04
2017-05-28T07:40:59.745Z,88.65
2017-05-28T07:41:25.247Z,88.56
2017-05-28T07:41:50.720Z,88.6
2017-05-28T07:42:16.190Z,88.22
2017-05-28T07:42:41.661Z,87.83
2017-05-28T07:43:07.140Z,87.83
2017-05-28T07:43:32.596Z,87.74
2017-05-28T07:43:58.067Z,87.16
2017-05-28T07:44:23.551Z,86.91
2017-05-28T07:44:49.060Z,85.94
2017-05-28T07:45:14.526Z,86.43
2017-05-28T07:45:39.991Z,86.14
2017-05-28T07:46:05.438Z,85.85
2017-05-28T07:46:30.941Z,85.31
2017-05-28T07:46:56.425Z,85.02
2017-05-28T07:47:21.879Z,84.44
2017-05-28T07:47:47.387Z,84.35
2017-05-28T07:48:12.821Z,84.06
2017-05-28T07:48:38.293Z,84.35
2017-05-28T07:49:03.763Z,83
2017-05-28T07:49:29.227Z,83.09
2017-05-28T07:49:54.721Z,81.74
2017-05-28T07:50:20.198Z,80.82
2017-05-28T07:50:45.692Z,80.87
2017-05-28T07:51:11.174Z,80.24
2017-05-28T07:51:36.655Z,80.91
2017-05-28T07:52:02.130Z,80.33
2017-05-28T07:52:27.606Z,79.75
2017-05-28T07:52:53.102Z,79.85
2017-05-28T07:53:18.568Z,79.37
2017-05-28T07:53:44.058Z,77.73
2017-05-28T07:54:09.535Z,78.06
2017-05-28T07:54:35.004Z,78.34
2017-05-28T07:55:00.481Z,78.25
2017-05-28T07:55:26.011Z,78.44
2017-05-28T07:55:51.463Z,78.06
2017-05-28T07:56:16.926Z,77.28
2017-05-28T07:56:42.413Z,77
2017-05-28T07:57:07.891Z,76.22
2017-05-28T07:57:33.381Z,76.42
2017-05-28T07:57:58.858Z,75.16
2017-05-28T07:58:24.330Z,73.9
2017-05-28T07:58:49.814Z,74.81
2017-05-28T07:59:15.275Z,74.58
2017-05-28T07:59:40.740Z,75.06
2017-05-28T08:00:06.262Z,75.39
2017-05-28T08:00:31.741Z,75.45
2017-05-28T08:00:57.233Z,75.06
2017-05-28T08:01:22.692Z,75.48
2017-05-28T08:01:48.188Z,75.68
2017-05-28T08:02:13.666Z,75.78
2017-05-28T08:02:39.150Z,74.23
2017-05-28T08:03:04.630Z,74.52
2017-05-28T08:03:30.120Z,73.84
2017-05-28T08:03:55.584Z,73.84
2017-05-28T08:04:21.068Z,73.55
2017-05-28T08:04:46.557Z,74.13
2017-05-28T08:05:12.050Z,73.74
2017-05-28T08:05:37.567Z,73.84
2017-05-28T08:06:03.035Z,74.13
2017-05-28T08:06:28.521Z,74.04
2017-05-28T08:06:53.999Z,73.46
2017-05-28T08:07:19.456Z,73.68
2017-05-28T08:07:44.930Z,73.88
2017-05-28T08:08:10.401Z,73.78
2017-05-28T08:08:35.880Z,73.39
2017-05-28T08:09:01.356Z,72.81
2017-05-28T08:09:26.834Z,72.81
2017-05-28T08:09:52.332Z,73.1
2017-05-28T08:10:17.873Z,73.2
2017-05-28T08:10:43.321Z,73.59
2017-05-28T08:11:08.813Z,73.33
2017-05-28T08:11:34.283Z,72.56
2017-05-28T08:11:59.800Z,72.46
2017-05-28T08:12:25.305Z,71.88
2017-05-28T08:12:50.797Z,71.88
2017-05-28T08:13:16.296Z,72.17
2017-05-28T08:13:41.759Z,72.56
2017-05-28T08:14:07.261Z,71.88
2017-05-28T08:14:32.752Z,71.78
2017-05-28T08:14:58.280Z,71.59
2017-05-28T08:15:23.752Z,70.92
2017-05-28T08:15:49.226Z,70.86
2017-05-28T08:16:14.714Z,71.14
2017-05-28T08:16:40.203Z,71.82
2017-05-28T08:17:05.696Z,72.02
2017-05-28T08:17:31.156Z,71.44
2017-05-28T08:17:56.644Z,71.62
2017-05-28T08:18:22.130Z,71.92
2017-05-28T08:18:47.631Z,70.95
2017-05-28T08:19:13.125Z,69.98
2017-05-28T08:19:38.595Z,69.82
2017-05-28T08:20:04.076Z,69.82
2017-05-28T08:20:29.551Z,69.82
2017-05-28T08:20:55.021Z,69.63
2017-05-28T08:21:20.502Z,69.82
2017-05-28T08:21:45.997Z,69.63
2017-05-28T08:22:11.524Z,69.92
2017-05-28T08:22:37.007Z,70.01
2017-05-28T08:23:02.546Z,70.11
2017-05-28T08:23:28.049Z,69.82
2017-05-28T08:23:53.521Z,69.24
2017-05-28T08:24:19.002Z,67.98
2017-05-28T08:24:44.459Z,68.08
2017-05-28T08:25:09.946Z,68.27
2017-05-28T08:25:35.443Z,69.05
2017-05-28T08:26:00.909Z,69.05
2017-05-28T08:26:26.386Z,68.95
2017-05-28T08:26:51.850Z,68.85
2017-05-28T08:27:17.313Z,68.85
2017-05-28T08:27:42.805Z,68.47
2017-05-28T08:28:08.281Z,68.21
2017-05-28T08:28:33.780Z,67.82
2017-05-28T08:28:59.258Z,67.79
2017-05-28T08:29:24.719Z,67.98
2017-05-28T08:29:50.231Z,68.21
2017-05-28T08:30:15.761Z,68.21
2017-05-28T08:30:41.279Z,67.72
2017-05-28T08:31:06.778Z,67.24
2017-05-28T08:31:32.238Z,66.75
2017-05-28T08:31:57.719Z,66.66
2017-05-28T08:32:23.211Z,66.56
2017-05-28T08:32:48.677Z,66.66
2017-05-28T08:33:14.162Z,66.85
2017-05-28T08:33:39.654Z,67.05
2017-05-28T08:34:05.123Z,67.05
2017-05-28T08:34:30.580Z,66.75
2017-05-28T08:34:56.052Z,66.85
2017-05-28T08:35:21.539Z,66.37
2017-05-28T08:35:47.034Z,66.66
2017-05-28T08:36:12.522Z,65.79
2017-05-28T08:36:38.009Z,64.95
2017-05-28T08:37:03.510Z,64.82
2017-05-28T08:37:28.984Z,64.47
2017-05-28T08:37:54.485Z,64.85
2017-05-28T08:38:19.951Z,64.34
2017-05-28T08:38:45.417Z,64.65
2017-05-28T08:39:10.914Z,64.37
2017-05-28T08:39:36.384Z,64.65
2017-05-28T08:40:01.844Z,64.37
2017-05-28T08:40:27.321Z,64.95
2017-05-28T08:40:52.792Z,64.75
2017-05-28T08:41:18.273Z,65.24
2017-05-28T08:41:43.752Z,65.82
2017-05-28T08:42:09.209Z,65.53
2017-05-28T08:42:34.687Z,65.63
2017-05-28T08:43:00.158Z,65.92
2017-05-28T08:43:25.617Z,65.92
2017-05-28T08:43:51.093Z,64.17
2017-05-28T08:44:16.568Z,64.37
2017-05-28T08:44:42.046Z,64.37
2017-05-28T08:45:07.573Z,64.75
2017-05-28T08:45:33.071Z,65.14
2017-05-28T08:45:58.568Z,65.82
2017-05-28T08:46:24.053Z,65.24
2017-05-28T08:46:49.519Z,64.85
2017-05-28T08:47:15.015Z,65.05
2017-05-28T08:47:40.510Z,64.37
2017-05-28T08:48:05.997Z,64.37
2017-05-28T08:48:31.462Z,64.56
2017-05-28T08:48:56.927Z,64.65
2017-05-28T08:49:22.384Z,64.75
2017-05-28T08:49:47.866Z,65.05
2017-05-28T08:50:13.345Z,64.95
2017-05-28T08:50:38.820Z,65.43
2017-05-28T08:51:04.302Z,65.05
2017-05-28T08:51:29.792Z,64.95
2017-05-28T08:51:55.311Z,64.72
2017-05-28T08:52:20.831Z,64.43
2017-05-28T08:52:46.307Z,64.24
2017-05-28T08:53:11.774Z,64.82
2017-05-28T08:53:37.260Z,65.34
2017-05-28T08:54:02.753Z,65.53
2017-05-28T08:54:28.205Z,65.82
2017-05-28T08:54:53.672Z,65.82
2017-05-28T08:55:19.159Z,65.05
2017-05-28T08:55:44.614Z,65.34
2017-05-28T08:56:10.090Z,65.05
2017-05-28T08:56:35.587Z,65.05
2017-05-28T08:57:01.069Z,65.05
2017-05-28T08:57:26.595Z,64.75
2017-05-28T08:57:52.067Z,63.69
2017-05-28T08:58:17.539Z,63.4
2017-05-28T08:58:43.013Z,63.59
2017-05-28T08:59:08.484Z,63.98
2017-05-28T08:59:33.997Z,63.4
2017-05-28T08:59:59.485Z,63.53
2017-05-28T09:00:24.966Z,63.13
2017-05-28T09:00:50.431Z,63.04
2017-05-28T09:01:15.946Z,62.85
2017-05-28T09:01:41.419Z,63.43
2017-05-28T09:02:06.870Z,62.95
2017-05-28T09:02:32.396Z,62.36
2017-05-28T09:02:57.865Z,62.07
2017-05-28T09:03:23.364Z,62.46
2017-05-28T09:03:48.854Z,61.98
2017-05-28T09:04:14.340Z,62.01
2017-05-28T09:04:39.840Z,61.81
2017-05-28T09:05:05.320Z,62.39
2017-05-28T09:05:30.815Z,62.01
2017-05-28T09:05:56.300Z,61.61
2017-05-28T09:06:21.787Z,61.52
2017-05-28T09:06:47.256Z,61.61
2017-05-28T09:07:12.742Z,61.22
2017-05-28T09:07:38.238Z,61.13
2017-05-28T09:08:03.701Z,60.84
2017-05-28T09:08:29.195Z,61.16
2017-05-28T09:08:54.685Z,61.16
2017-05-28T09:09:20.208Z,60.19
2017-05-28T09:09:45.726Z,60.48
2017-05-28T09:10:11.219Z,60.48
2017-05-28T09:10:36.695Z,60.09
2017-05-28T09:11:02.168Z,61.45
2017-05-28T09:11:27.636Z,60.68
2017-05-28T09:11:53.124Z,59.9
2017-05-28T09:12:18.611Z,59.51
2017-05-28T09:12:44.079Z,59.12
2017-05-28T09:13:09.556Z,59.8
2017-05-28T09:13:35.032Z,59.41
2017-05-28T09:14:00.501Z,59.22
2017-05-28T09:14:25.993Z,58.83
2017-05-28T09:14:51.460Z,58.44
2017-05-28T09:15:16.904Z,58.73
2017-05-28T09:15:42.372Z,58.83
2017-05-28T09:16:07.843Z,59.12
2017-05-28T09:16:33.329Z,59.25
2017-05-28T09:16:58.841Z,58.76
2017-05-28T09:17:24.335Z,58.86
2017-05-28T09:17:49.802Z,59.25
2017-05-28T09:18:15.291Z,59.05
2017-05-28T09:18:40.731Z,59.05
2017-05-28T09:19:06.196Z,58.47
2017-05-28T09:19:31.726Z,57.98
2017-05-28T09:19:57.184Z,57.69
2017-05-28T09:20:22.678Z,57.72
2017-05-28T09:20:48.154Z,57.82
2017-05-28T09:21:13.621Z,57.92
2017-05-28T09:21:39.149Z,57.92
2017-05-28T09:22:04.634Z,57.04
2017-05-28T09:22:30.149Z,57.14
2017-05-28T09:22:55.625Z,57.82
2017-05-28T09:23:21.110Z,57.33
2017-05-28T09:23:46.586Z,56.65
2017-05-28T09:24:12.096Z,56.95
2017-05-28T09:24:37.577Z,56.65
2017-05-28T09:25:03.062Z,57.14
2017-05-28T09:25:28.526Z,56.56
2017-05-28T09:25:54.009Z,56.46
2017-05-28T09:26:19.488Z,56.07
2017-05-28T09:26:44.951Z,55.88
2017-05-28T09:27:10.427Z,55.19
2017-05-28T09:27:35.895Z,55.58
2017-05-28T09:28:01.394Z,55.1
2017-05-28T09:28:26.893Z,55.58
2017-05-28T09:28:52.434Z,55.1
2017-05-28T09:29:17.861Z,55.39
2017-05-28T09:29:43.357Z,55.88
2017-05-28T09:30:08.862Z,55.68
2017-05-28T09:30:34.301Z,56.36
2017-05-28T09:30:59.800Z,56.26
2017-05-28T09:31:25.287Z,55.98
2017-05-28T09:31:50.768Z,56.65
2017-05-28T09:32:16.252Z,56.16
2017-05-28T09:32:41.723Z,55.98
2017-05-28T09:33:07.197Z,55.78
2017-05-28T09:33:32.678Z,55.49
2017-05-28T09:33:58.165Z,56.26
2017-05-28T09:34:23.635Z,56.56
2017-05-28T09:34:49.126Z,56.07
2017-05-28T09:35:14.590Z,56.56
2017-05-28T09:35:40.093Z,56.16
2017-05-28T09:36:05.578Z,55.39
2017-05-28T09:36:31.044Z,55.68
2017-05-28T09:36:56.575Z,55.68
2017-05-28T09:37:22.067Z,55.49
2017-05-28T09:37:47.555Z,55.78
2017-05-28T09:38:13.025Z,55.1
2017-05-28T09:38:38.506Z,55.1
2017-05-28T09:39:04.007Z,55.29
2017-05-28T09:39:29.515Z,55.13
2017-05-28T09:39:55.007Z,55.22
2017-05-28T09:40:20.465Z,54.93
2017-05-28T09:40:45.974Z,54.83
2017-05-28T09:41:11.444Z,55.13
2017-05-28T09:41:36.915Z,54.35
2017-05-28T09:42:02.413Z,54.25
2017-05-28T09:42:27.860Z,54.05
2017-05-28T09:42:53.345Z,53.77
2017-05-28T09:43:18.842Z,53.77
2017-05-28T09:43:44.301Z,53.67
2017-05-28T09:44:09.796Z,53.28
2017-05-28T09:44:35.294Z,53.99
2017-05-28T09:45:00.774Z,53.4
2017-05-28T09:45:26.248Z,53.18
2017-05-28T09:45:51.769Z,52.62
2017-05-28T09:46:17.287Z,52.89
2017-05-28T09:46:42.780Z,52.62
2017-05-28T09:47:08.235Z,52.82
2017-05-28T09:47:33.704Z,52.53
2017-05-28T09:47:59.219Z,52.62
2017-05-28T09:48:24.684Z,51.94
2017-05-28T09:48:50.147Z,52.04
2017-05-28T09:49:15.633Z,51.94
2017-05-28T09:49:41.105Z,52.14
2017-05-28T09:50:06.632Z,52.53
2017-05-28T09:50:32.047Z,52.5
2017-05-28T09:50:57.536Z,52.01
2017-05-28T09:51:23.023Z,52.01
2017-05-28T09:51:48.513Z,52.31
2017-05-28T09:52:13.999Z,52.5
2017-05-28T09:52:39.498Z,52.98
2017-05-28T09:53:04.992Z,52.69
2017-05-28T09:53:30.471Z,53.35
2017-05-28T09:53:55.969Z,53.47
2017-05-28T09:54:21.457Z,53.16
2017-05-28T09:54:46.937Z,53.16
2017-05-28T09:55:12.418Z,53.83
2017-05-28T09:55:37.889Z,53.93
2017-05-28T09:56:03.381Z,53.74
2017-05-28T09:56:28.888Z,54.13
2017-05-28T09:56:54.401Z,54.13
2017-05-28T09:57:19.891Z,54.2
2017-05-28T09:57:45.345Z,54.49
2017-05-28T09:58:10.813Z,54.29
2017-05-28T09:58:36.303Z,54.29
2017-05-28T09:59:01.803Z,54.2
2017-05-28T09:59:27.259Z,53.71
2017-05-28T09:59:52.741Z,54
2017-05-28T10:00:18.229Z,53.91
2017-05-28T10:00:43.693Z,54.1
2017-05-28T10:01:09.196Z,54.2
2017-05-28T10:01:34.682Z,53.97
2017-05-28T10:02:00.180Z,54.1
2017-05-28T10:02:25.676Z,52.64
2017-05-28T10:02:51.185Z,52.91
2017-05-28T10:03:16.699Z,52.72
2017-05-28T10:03:42.184Z,52.72
2017-05-28T10:04:07.652Z,53.49
2017-05-28T10:04:33.158Z,53.39
2017-05-28T10:04:58.621Z,54.07
2017-05-28T10:05:24.081Z,54.07
2017-05-28T10:05:49.574Z,54.17
2017-05-28T10:06:15.061Z,54.27
2017-05-28T10:06:40.548Z,54.36
2017-05-28T10:07:06.036Z,54.94
2017-05-28T10:07:31.516Z,55.41
2017-05-28T10:07:57.041Z,55.31
2017-05-28T10:08:22.523Z,56.28
2017-05-28T10:08:47.977Z,56.37
2017-05-28T10:09:13.467Z,56.86
2017-05-28T10:09:38.953Z,57.15
2017-05-28T10:10:04.442Z,58.03
2017-05-28T10:10:29.906Z,58.8
2017-05-28T10:10:55.385Z,59.19
2017-05-28T10:11:20.857Z,59.28
2017-05-28T10:11:46.332Z,59.36
2017-05-28T10:12:11.827Z,60.32
2017-05-28T10:12:37.289Z,61.39
2017-05-28T10:13:02.788Z,61.39
2017-05-28T10:13:28.301Z,62.07
2017-05-28T10:13:53.794Z,62.26
2017-05-28T10:14:19.247Z,62.43
2017-05-28T10:14:44.727Z,62.72
2017-05-28T10:15:10.202Z,63.4
2017-05-28T10:15:35.706Z,63.69
2017-05-28T10:16:01.174Z,64.47
2017-05-28T10:16:26.661Z,64.37